Hauptseite
METAR-TAF:

METAR-TAF

Flughäfen :

Base Aérea de Armilla

Granada, Spanien

Breite: 37-08N, Länge: 003-38-08W, Höhe: 700 m

Beobachtung

Neuester Wetterbericht von vor 39 Minuten, um 12:00 UTC
Wind 10 kt aus Südwest, variierte zwischen Süd und West
Temperatur 21°C
Luftfeuchtigkeit 56%
Luftdruck 1021 hPa
Sichtweite 10 km oder mehr
keine Wolken unter 1500 m und keine Kumulonimbus oder Gewitterwolken

METAR: LEGA 081200Z 22010KT 180V270 CAVOK 21/12 Q1021

Zeit: 14:39 (12:39 UTC)

Prognose

Neuester Wetterbericht von vor 1 Stunde und 39 Minuten, um 11:00 UTC
Gültige Prognose vom 08 um 12 UTC bis 08 um 21 UTC
Wind 2 kt aus unterschiedlichen Richtungen
Sichtweite 10 km oder mehr
Leicht bewölkt in der Höhe von 4000 ft
Aufgelockert bewölkt in der Höhe von 7500 ft
Übergehend zu
vom 08 um 13 UTC bis 08 um 15 UTC
Wind 10 kt aus Süd

TAF: LEGA 081100Z 0812/0821 VRB02KT 9999 FEW040 SCT075 BECMG 0813/0815 17010KT

Wetterbeobachtungen und Prognosen von mehr als 4000 Flughäfen (METAR und TAF Bericht).

Die verfügbaren Stationen werden durch gelbe und rote Markierungen auf der Karte dargestellt.

Führen Sie die Maus auf sie, um den Namen der Station zu sehen.

Darauf klicken, um die Beobachtung von Wetterbeobachtungen und Prognosen zu sehen.

Um die Karte zu ändern : klicken Sie auf den grünen Tasten mit einem schwarzen Kreuz Zum Vergrößern, auf den grünen Button mit einem Gedankenstrich zu verkleinern, oder auf die grünen Pfeile für benachbarte Karten.


METAR-TAF: